createdAt,value
2023-05-14T00:00:50.051Z,102152.63
2023-05-14T00:03:17.621Z,102143.84
2023-05-14T00:05:44.542Z,102143.84
2023-05-14T00:08:11.391Z,102143.84
2023-05-14T00:10:38.544Z,102135.56
2023-05-14T00:13:06.067Z,102138.50
2023-05-14T00:15:34.363Z,102126.97
2023-05-14T00:18:01.681Z,102121.78
2023-05-14T00:20:28.760Z,102118.22
2023-05-14T00:22:55.727Z,102121.66
2023-05-14T00:25:22.540Z,102113.69
2023-05-14T00:27:49.580Z,102108.16
2023-05-14T00:30:16.414Z,102109.28
2023-05-14T00:32:43.388Z,102105.75
2023-05-14T00:35:10.385Z,102111.28
2023-05-14T00:37:37.588Z,102102.66
2023-05-14T00:40:06.956Z,102100.56
2023-05-14T00:42:35.054Z,102103.97
2023-05-14T00:45:02.072Z,102096.03
2023-05-14T00:47:29.491Z,102093.28
2023-05-14T00:49:56.543Z,102086.94
2023-05-14T00:52:23.492Z,102094.06
2023-05-14T00:54:50.942Z,102091.31
2023-05-14T00:57:19.175Z,102096.81
2023-05-14T00:59:46.219Z,102088.88
2023-05-14T01:02:13.038Z,102086.13
2023-05-14T01:04:40.620Z,102086.13
2023-05-14T01:07:16.410Z,102082.56
2023-05-14T01:09:49.790Z,102085.97
2023-05-14T01:12:27.367Z,102081.59
2023-05-14T01:15:09.413Z,102090.69
2023-05-14T01:17:42.962Z,102091.84
2023-05-14T01:20:10.798Z,102090.69
2023-05-14T01:22:37.994Z,102085.66
2023-05-14T01:25:06.269Z,102086.94
2023-05-14T01:27:56.497Z,102086.28
2023-05-14T01:30:28.005Z,102074.25
2023-05-14T01:32:58.923Z,102070.34
2023-05-14T01:35:29.851Z,102075.53
2023-05-14T01:37:59.790Z,102073.59
2023-05-14T01:40:27.511Z,102075.22
2023-05-14T01:42:55.473Z,102070.66
2023-05-14T01:45:23.888Z,102068.38
2023-05-14T01:47:51.810Z,102068.69
2023-05-14T01:50:18.995Z,102065.56
2023-05-14T01:52:46.002Z,102062.00
2023-05-14T01:55:12.988Z,102054.22
2023-05-14T01:57:40.022Z,102045.50
2023-05-14T02:00:07.510Z,102045.50
2023-05-14T02:02:41.117Z,102035.72
2023-05-14T02:05:12.285Z,102046.78
2023-05-14T02:07:48.972Z,102045.97
2023-05-14T02:10:16.420Z,102037.38
2023-05-14T02:12:48.326Z,102032.97
2023-05-14T02:15:15.142Z,102028.13
2023-05-14T02:17:42.009Z,102034.59
2023-05-14T02:20:11.484Z,102033.31
2023-05-14T02:22:38.443Z,102030.06
2023-05-14T02:25:05.725Z,102040.63
2023-05-14T02:27:33.055Z,102025.72
2023-05-14T02:30:00.887Z,102022.94
2023-05-14T02:32:28.547Z,102019.03
2023-05-14T02:34:55.507Z,102017.69
2023-05-14T02:37:22.383Z,102016.25
2023-05-14T02:39:49.576Z,102010.59
2023-05-14T02:42:16.530Z,102011.72
2023-05-14T02:44:43.379Z,102013.19
2023-05-14T02:47:11.261Z,102009.81
2023-05-14T02:49:38.229Z,102008.66
2023-05-14T02:52:05.580Z,102016.94
2023-05-14T02:54:32.660Z,102008.19
2023-05-14T02:56:59.660Z,102001.53
2023-05-14T02:59:27.172Z,102010.63
2023-05-14T03:01:54.465Z,102005.91
2023-05-14T03:04:22.316Z,102007.53
2023-05-14T03:06:49.811Z,102000.38
2023-05-14T03:09:16.657Z,102012.22
2023-05-14T03:11:43.543Z,102008.53
2023-05-14T03:14:10.331Z,102005.78
2023-05-14T03:16:44.923Z,102009.97
2023-05-14T03:19:12.343Z,102002.38
2023-05-14T03:21:39.471Z,101999.28
2023-05-14T03:24:07.071Z,102001.69
2023-05-14T03:26:34.463Z,101996.53
2023-05-14T03:29:02.889Z,101995.06
2023-05-14T03:31:29.852Z,101995.53
2023-05-14T03:33:56.943Z,101990.81
2023-05-14T03:36:23.937Z,101993.56
2023-05-14T03:38:50.757Z,101995.66
2023-05-14T03:41:19.132Z,101996.16
2023-05-14T03:43:46.047Z,102000.69
2023-05-14T03:46:12.959Z,102004.72
2023-05-14T03:48:39.945Z,102001.28
2023-05-14T03:51:06.957Z,101989.25
2023-05-14T03:53:36.190Z,101981.59
2023-05-14T03:56:03.055Z,101977.16
2023-05-14T03:58:29.909Z,101975.13
2023-05-14T04:00:56.823Z,101976.91
2023-05-14T04:03:23.793Z,101963.69
2023-05-14T04:05:51.218Z,101978.13
2023-05-14T04:08:18.145Z,101994.97
2023-05-14T04:10:45.038Z,101987.13
2023-05-14T04:13:12.054Z,101995.88
2023-05-14T04:15:40.506Z,101988.56
2023-05-14T04:18:07.853Z,102001.56
2023-05-14T04:20:34.850Z,101981.91
2023-05-14T04:23:01.701Z,101996.03
2023-05-14T04:25:28.527Z,101985.78
2023-05-14T04:27:55.559Z,101988.09
2023-05-14T04:30:22.891Z,101988.41
2023-05-14T04:32:50.076Z,101993.47
2023-05-14T04:35:17.074Z,101981.81
2023-05-14T04:37:44.519Z,101990.13
2023-05-14T04:40:12.571Z,102004.78
2023-05-14T04:42:39.451Z,101983.03
2023-05-14T04:45:07.216Z,101986.13
2023-05-14T04:47:34.940Z,101996.50
2023-05-14T04:50:02.442Z,101995.34
2023-05-14T04:52:29.648Z,101987.53
2023-05-14T04:54:57.007Z,101990.78
2023-05-14T04:57:23.949Z,101985.41
2023-05-14T04:59:50.780Z,101982.75
2023-05-14T05:02:17.700Z,101983.69
2023-05-14T05:04:45.700Z,101986.75
2023-05-14T05:07:13.433Z,101993.19
2023-05-14T05:09:40.724Z,101996.53
2023-05-14T05:12:07.910Z,101995.03
2023-05-14T05:14:35.533Z,101992.78
2023-05-14T05:17:02.565Z,101998.00
2023-05-14T05:19:42.495Z,101999.03
2023-05-14T05:22:11.821Z,102004.28
2023-05-14T05:24:39.199Z,102002.69
2023-05-14T05:27:06.154Z,102002.00
2023-05-14T05:29:33.884Z,101997.63
2023-05-14T05:32:01.395Z,101999.16
2023-05-14T05:34:28.403Z,102001.13
2023-05-14T05:36:55.320Z,102000.16
2023-05-14T05:39:22.134Z,101997.41
2023-05-14T05:41:48.938Z,101990.97
2023-05-14T05:44:15.813Z,102001.56
2023-05-14T05:46:42.820Z,102000.88
2023-05-14T05:49:09.696Z,102010.13
2023-05-14T05:51:36.599Z,102003.44
2023-05-14T05:54:03.969Z,102007.25
2023-05-14T05:56:30.886Z,102003.44
2023-05-14T05:58:57.717Z,102014.66
2023-05-14T06:01:24.716Z,102005.28
2023-05-14T06:03:51.656Z,102004.16
2023-05-14T06:06:18.440Z,102004.59
2023-05-14T06:08:45.333Z,102012.53
2023-05-14T06:11:12.765Z,102014.31
2023-05-14T06:13:39.658Z,102015.56
2023-05-14T06:16:06.660Z,102019.28
2023-05-14T06:18:33.906Z,102010.38
2023-05-14T06:21:00.829Z,102006.88
2023-05-14T06:23:27.752Z,102019.88
2023-05-14T06:25:54.612Z,102014.88
2023-05-14T06:28:21.596Z,102013.31
2023-05-14T06:30:50.592Z,102011.59
2023-05-14T06:33:18.751Z,102016.53
2023-05-14T06:35:47.452Z,102016.50
2023-05-14T06:38:14.434Z,102011.59
2023-05-14T06:40:41.272Z,102027.13
2023-05-14T06:43:08.162Z,102019.31
2023-05-14T06:45:35.941Z,102028.56
2023-05-14T06:48:03.068Z,102025.34
2023-05-14T06:50:29.995Z,102003.84
2023-05-14T06:52:56.892Z,102000.88
2023-05-14T06:55:23.779Z,102006.22
2023-05-14T06:57:51.023Z,101997.91
2023-05-14T07:00:18.370Z,102002.22
2023-05-14T07:02:45.262Z,102005.06
2023-05-14T07:05:12.074Z,102001.56
2023-05-14T07:07:48.409Z,101997.66
2023-05-14T07:10:15.371Z,101996.75
2023-05-14T07:12:42.532Z,102005.81
2023-05-14T07:15:09.809Z,102002.22
2023-05-14T07:17:37.806Z,102001.63
2023-05-14T07:20:05.815Z,102003.47
2023-05-14T07:22:32.682Z,102001.88
2023-05-14T07:24:59.535Z,102005.19
2023-05-14T07:27:26.575Z,102009.06
2023-05-14T07:29:53.491Z,102013.00
2023-05-14T07:32:20.457Z,102019.28
2023-05-14T07:34:47.445Z,102020.00
2023-05-14T07:37:14.281Z,102013.91
2023-05-14T07:39:41.793Z,102000.75
2023-05-14T07:42:09.505Z,102008.16
2023-05-14T07:44:36.903Z,102001.06
2023-05-14T07:47:04.402Z,102000.50
2023-05-14T07:49:31.374Z,102007.19
2023-05-14T07:51:58.638Z,102008.34
2023-05-14T07:54:26.278Z,102009.50
2023-05-14T07:56:53.485Z,102008.88
2023-05-14T07:59:20.418Z,102006.88
2023-05-14T08:01:47.517Z,102000.78
2023-05-14T08:04:16.357Z,101998.97
2023-05-14T08:06:43.490Z,101995.59
2023-05-14T08:09:10.318Z,101997.72
2023-05-14T08:11:37.170Z,101995.38
2023-05-14T08:14:04.184Z,101996.91
2023-05-14T08:16:31.194Z,101993.44
2023-05-14T08:18:58.229Z,101994.81
2023-05-14T08:21:25.174Z,101991.41
2023-05-14T08:23:52.053Z,101995.00
2023-05-14T08:26:19.011Z,101992.34
2023-05-14T08:28:45.948Z,101998.41
2023-05-14T08:31:14.675Z,101995.69
2023-05-14T08:33:43.011Z,101996.91
2023-05-14T08:36:10.046Z,101982.66
2023-05-14T08:38:36.949Z,101994.88
2023-05-14T08:41:06.543Z,101988.53
2023-05-14T08:43:44.893Z,101986.59
2023-05-14T08:46:15.028Z,101980.53
2023-05-14T08:48:43.359Z,101981.59
2023-05-14T08:51:10.462Z,101988.56
2023-05-14T08:53:40.387Z,101978.19
2023-05-14T08:56:07.969Z,101983.81
2023-05-14T08:58:34.886Z,101984.59
2023-05-14T09:01:05.401Z,101980.88
2023-05-14T09:03:33.537Z,101973.38
2023-05-14T09:06:01.295Z,101976.84
2023-05-14T09:08:28.408Z,101972.09
2023-05-14T09:10:55.414Z,101981.47
2023-05-14T09:13:22.616Z,101980.25
2023-05-14T09:15:51.303Z,101978.00
2023-05-14T09:18:18.447Z,101973.25
2023-05-14T09:20:47.168Z,101963.97
2023-05-14T09:23:14.039Z,101961.25
2023-05-14T09:25:41.014Z,101964.91
2023-05-14T09:28:09.803Z,101966.09
2023-05-14T09:30:37.165Z,101965.69
2023-05-14T09:33:04.379Z,101964.41
2023-05-14T09:35:32.783Z,101956.56
2023-05-14T09:37:59.867Z,101944.91
2023-05-14T09:40:27.194Z,101952.84
2023-05-14T09:42:54.441Z,101947.31
2023-05-14T09:45:21.507Z,101946.47
2023-05-14T09:47:48.887Z,101940.94
2023-05-14T09:50:16.132Z,101940.50
2023-05-14T09:52:43.394Z,101945.84
2023-05-14T09:55:10.648Z,101944.19
2023-05-14T09:57:37.626Z,101940.41
2023-05-14T10:00:05.117Z,101938.16
2023-05-14T10:02:40.706Z,101932.84
2023-05-14T10:05:08.703Z,101936.59
2023-05-14T10:07:47.184Z,101938.31
2023-05-14T10:10:17.101Z,101940.91
2023-05-14T10:12:51.738Z,101939.63
2023-05-14T10:15:26.983Z,101942.31
2023-05-14T10:17:58.482Z,101939.84
2023-05-14T10:20:27.765Z,101940.63
2023-05-14T10:22:55.176Z,101935.69
2023-05-14T10:25:23.130Z,101925.78
2023-05-14T10:27:50.113Z,101922.06
2023-05-14T10:30:21.001Z,101922.19
2023-05-14T10:32:47.914Z,101924.53
2023-05-14T10:35:25.398Z,101919.78
2023-05-14T10:37:52.375Z,101911.00
2023-05-14T10:40:19.601Z,101917.88
2023-05-14T10:42:47.286Z,101917.09
2023-05-14T10:45:15.646Z,101923.28
2023-05-14T10:47:45.917Z,101916.03
2023-05-14T10:50:15.051Z,101909.22
2023-05-14T10:52:46.443Z,101903.78
2023-05-14T10:55:15.871Z,101915.50
2023-05-14T10:57:45.329Z,101906.00
2023-05-14T11:00:14.335Z,101906.84
2023-05-14T11:02:45.954Z,101906.97
2023-05-14T11:05:20.030Z,101906.88
2023-05-14T11:07:50.474Z,101904.56
2023-05-14T11:10:19.822Z,101897.88
2023-05-14T11:12:48.526Z,101892.56
2023-05-14T11:15:23.632Z,101892.97
2023-05-14T11:17:52.484Z,101887.81
2023-05-14T11:20:21.171Z,101884.75
2023-05-14T11:22:50.290Z,101887.72
2023-05-14T11:25:18.428Z,101882.16
2023-05-14T11:27:46.932Z,101892.53
2023-05-14T11:30:18.608Z,101885.25
2023-05-14T11:32:48.658Z,101888.94
2023-05-14T11:35:16.914Z,101882.94
2023-05-14T11:37:49.458Z,101874.59
2023-05-14T11:40:16.987Z,101878.66
2023-05-14T11:42:44.147Z,101874.28
2023-05-14T11:45:12.438Z,101875.84
2023-05-14T11:47:41.597Z,101877.06
2023-05-14T11:50:09.752Z,101873.44
2023-05-14T11:52:41.556Z,101871.81
2023-05-14T11:55:13.107Z,101872.25
2023-05-14T11:57:41.227Z,101861.88
2023-05-14T12:00:21.388Z,101866.22
2023-05-14T12:02:50.081Z,101865.03
2023-05-14T12:05:17.411Z,101859.88
2023-05-14T12:07:47.656Z,101847.44
2023-05-14T12:10:15.278Z,101851.06
2023-05-14T12:12:45.860Z,101851.44
2023-05-14T12:15:14.226Z,101854.25
2023-05-14T12:17:41.333Z,101848.16
2023-05-14T12:20:10.639Z,101844.16
2023-05-14T12:22:38.445Z,101846.66
2023-05-14T12:25:12.570Z,101837.84
2023-05-14T12:27:39.542Z,101838.66
2023-05-14T12:30:20.623Z,101824.53
2023-05-14T12:32:51.892Z,101829.69
2023-05-14T12:35:19.521Z,101833.81
2023-05-14T12:37:46.581Z,101827.41
2023-05-14T12:40:13.597Z,101827.28
2023-05-14T12:42:40.558Z,101829.47
2023-05-14T12:45:08.741Z,101820.59
2023-05-14T12:47:37.392Z,101818.84
2023-05-14T12:50:05.105Z,101820.19
2023-05-14T12:55:01.860Z,101811.38
2023-05-14T12:57:30.311Z,101813.03
2023-05-14T12:59:57.656Z,101819.00
2023-05-14T13:02:24.605Z,101814.19
2023-05-14T13:04:51.457Z,101813.81
2023-05-14T13:07:18.701Z,101807.94
2023-05-14T13:09:45.913Z,101811.56
2023-05-14T13:12:13.015Z,101800.88
2023-05-14T13:14:39.820Z,101807.75
2023-05-14T13:17:08.318Z,101809.50
2023-05-14T13:19:35.506Z,101804.34
2023-05-14T13:22:02.465Z,101803.84
2023-05-14T13:24:29.716Z,101803.69
2023-05-14T13:26:56.755Z,101806.84
2023-05-14T13:29:24.492Z,101806.69
2023-05-14T13:31:51.754Z,101801.78
2023-05-14T13:34:19.054Z,101790.38
2023-05-14T13:36:47.228Z,101794.34
2023-05-14T13:39:14.638Z,101791.91
2023-05-14T13:41:41.881Z,101783.38
2023-05-14T13:44:08.722Z,101787.22
2023-05-14T13:46:35.607Z,101789.84
2023-05-14T13:49:02.668Z,101784.56
2023-05-14T13:51:29.624Z,101790.41
2023-05-14T13:53:56.796Z,101788.50
2023-05-14T13:56:23.930Z,101773.31
2023-05-14T13:58:51.167Z,101774.94
2023-05-14T14:01:18.232Z,101771.06
2023-05-14T14:03:45.175Z,101778.25
2023-05-14T14:06:12.092Z,101774.75
2023-05-14T14:08:39.078Z,101775.75
2023-05-14T14:11:06.126Z,101768.53
2023-05-14T14:13:33.103Z,101772.09
2023-05-14T14:16:00.165Z,101760.69
2023-05-14T14:18:27.245Z,101770.28
2023-05-14T14:20:54.188Z,101771.03
2023-05-14T14:23:21.452Z,101772.75
2023-05-14T14:25:48.650Z,101769.94
2023-05-14T14:28:15.722Z,101759.56
2023-05-14T14:30:43.894Z,101778.41
2023-05-14T14:33:11.622Z,101765.72
2023-05-14T14:35:38.676Z,101755.44
2023-05-14T14:38:05.812Z,101764.25
2023-05-14T14:40:34.139Z,101757.81
2023-05-14T14:43:02.084Z,101763.81
2023-05-14T14:45:29.362Z,101758.50
2023-05-14T14:48:28.540Z,101749.78
2023-05-14T14:50:55.913Z,101751.41
2023-05-14T14:53:24.384Z,101753.47
2023-05-14T14:55:52.226Z,101749.81
2023-05-14T14:58:20.711Z,101743.03
2023-05-14T15:00:48.892Z,101743.03
2023-05-14T15:03:16.014Z,101736.59
2023-05-14T15:05:43.162Z,101746.19
2023-05-14T15:08:10.656Z,101748.56
2023-05-14T15:10:38.484Z,101748.19
2023-05-14T15:13:06.460Z,101739.00
2023-05-14T15:15:36.327Z,101729.84
2023-05-14T15:18:04.622Z,101728.25
2023-05-14T15:20:31.722Z,101741.03
2023-05-14T15:22:58.580Z,101733.81
2023-05-14T15:25:26.602Z,101739.41
2023-05-14T15:27:53.742Z,101736.66
2023-05-14T15:30:20.692Z,101733.88
2023-05-14T15:32:47.727Z,101733.47
2023-05-14T15:35:14.656Z,101735.47
2023-05-14T15:37:43.586Z,101742.66
2023-05-14T15:40:11.537Z,101738.94
2023-05-14T15:42:40.202Z,101728.16
2023-05-14T15:45:07.568Z,101737.78
2023-05-14T15:47:34.637Z,101730.19
2023-05-14T15:50:01.675Z,101742.13
2023-05-14T15:52:28.847Z,101756.13
2023-05-14T15:54:57.453Z,101758.91
2023-05-14T15:57:24.377Z,101753.69
2023-05-14T15:59:51.637Z,101753.22
2023-05-14T16:02:18.619Z,101757.53
2023-05-14T16:04:45.682Z,101762.09
2023-05-14T16:07:13.454Z,101743.44
2023-05-14T16:09:40.602Z,101739.84
2023-05-14T16:12:08.369Z,101747.06
2023-05-14T16:14:36.051Z,101752.97
2023-05-14T16:17:03.144Z,101740.34
2023-05-14T16:19:30.068Z,101743.63
2023-05-14T16:21:57.037Z,101747.03
2023-05-14T16:24:24.059Z,101746.88
2023-05-14T16:26:50.950Z,101740.25
2023-05-14T16:29:17.882Z,101738.03
2023-05-14T16:31:45.051Z,101744.25
2023-05-14T16:34:12.054Z,101746.13
2023-05-14T16:36:39.275Z,101746.06
2023-05-14T16:39:08.529Z,101748.06
2023-05-14T16:41:36.189Z,101746.34
2023-05-14T16:44:04.081Z,101745.84
2023-05-14T16:46:31.702Z,101746.66
2023-05-14T16:48:58.776Z,101750.25
2023-05-14T16:51:25.761Z,101744.88
2023-05-14T16:53:54.665Z,101749.44
2023-05-14T16:56:22.763Z,101755.75
2023-05-14T16:58:49.981Z,101758.53
2023-05-14T17:01:17.062Z,101753.66
2023-05-14T17:03:45.655Z,101761.41
2023-05-14T17:06:12.581Z,101753.44
2023-05-14T17:08:39.430Z,101754.25
2023-05-14T17:11:06.549Z,101756.69
2023-05-14T17:13:34.083Z,101737.03
2023-05-14T17:16:01.271Z,101744.94
2023-05-14T17:18:28.444Z,101749.06
2023-05-14T17:20:55.576Z,101742.97
2023-05-14T17:23:22.518Z,101736.31
2023-05-14T17:25:49.664Z,101737.81
2023-05-14T17:28:16.578Z,101746.25
2023-05-14T17:30:43.947Z,101740.94
2023-05-14T17:33:11.564Z,101739.38
2023-05-14T17:35:38.715Z,101742.66
2023-05-14T17:38:05.935Z,101728.75
2023-05-14T17:40:33.761Z,101724.00
2023-05-14T17:43:00.894Z,101728.03
2023-05-14T17:45:32.116Z,101733.94
2023-05-14T17:48:04.153Z,101731.94
2023-05-14T17:50:31.192Z,101732.69
2023-05-14T17:52:58.053Z,101734.16
2023-05-14T17:55:25.893Z,101736.22
2023-05-14T17:57:53.071Z,101748.34
2023-05-14T18:00:20.981Z,101740.34
2023-05-14T18:02:48.684Z,101735.22
2023-05-14T18:05:16.157Z,101741.88
2023-05-14T18:07:43.763Z,101735.81
2023-05-14T18:10:10.954Z,101738.78
2023-05-14T18:12:38.044Z,101737.81
2023-05-14T18:15:05.574Z,101742.78
2023-05-14T18:17:32.647Z,101744.59
2023-05-14T18:20:00.265Z,101746.38
2023-05-14T18:22:27.227Z,101741.53
2023-05-14T18:24:54.325Z,101743.25
2023-05-14T18:27:21.271Z,101747.38
2023-05-14T18:29:48.454Z,101745.31
2023-05-14T18:32:15.430Z,101739.22
2023-05-14T18:34:42.335Z,101741.28
2023-05-14T18:37:09.546Z,101738.84
2023-05-14T18:39:36.460Z,101742.00
2023-05-14T18:42:04.192Z,101735.81
2023-05-14T18:44:31.401Z,101739.09
2023-05-14T18:46:59.788Z,101743.72
2023-05-14T18:49:26.839Z,101736.97
2023-05-14T18:51:53.761Z,101735.16
2023-05-14T18:54:20.688Z,101733.91
2023-05-14T18:56:47.836Z,101740.53
2023-05-14T18:59:14.753Z,101746.38
2023-05-14T19:01:41.637Z,101735.31
2023-05-14T19:04:08.864Z,101735.44
2023-05-14T19:06:36.259Z,101739.72
2023-05-14T19:09:04.369Z,101728.34
2023-05-14T19:11:31.271Z,101736.41
2023-05-14T19:13:58.249Z,101735.03
2023-05-14T19:16:25.596Z,101732.38
2023-05-14T19:18:52.806Z,101736.06
2023-05-14T19:21:19.804Z,101734.91
2023-05-14T19:23:46.628Z,101732.41
2023-05-14T19:26:13.585Z,101730.56
2023-05-14T19:28:40.507Z,101735.28
2023-05-14T19:31:07.529Z,101730.66
2023-05-14T19:33:34.468Z,101732.53
2023-05-14T19:36:01.516Z,101748.19
2023-05-14T19:38:29.648Z,101747.25
2023-05-14T19:40:57.129Z,101739.91
2023-05-14T19:43:25.501Z,101748.56
2023-05-14T19:45:52.498Z,101747.50
2023-05-14T19:48:19.696Z,101743.22
2023-05-14T19:50:47.412Z,101748.19
2023-05-14T19:53:14.933Z,101752.00
2023-05-14T19:55:41.892Z,101751.53
2023-05-14T19:58:09.097Z,101744.47
2023-05-14T20:00:37.152Z,101737.78
2023-05-14T20:03:05.839Z,101742.16
2023-05-14T20:05:34.497Z,101743.31
2023-05-14T20:08:01.985Z,101739.72
2023-05-14T20:10:30.593Z,101742.16
2023-05-14T20:12:57.545Z,101733.88
2023-05-14T20:15:24.768Z,101730.75
2023-05-14T20:17:52.306Z,101728.81
2023-05-14T20:20:19.251Z,101714.19
2023-05-14T20:22:46.133Z,101713.03
2023-05-14T20:25:13.857Z,101712.94
2023-05-14T20:27:41.340Z,101701.75
2023-05-14T20:30:08.784Z,101706.81
2023-05-14T20:32:36.497Z,101696.09
2023-05-14T20:35:04.123Z,101692.06
2023-05-14T20:37:32.955Z,101697.47
2023-05-14T20:40:00.661Z,101703.00
2023-05-14T20:42:28.269Z,101699.06
2023-05-14T20:44:55.607Z,101695.75
2023-05-14T20:47:26.664Z,101697.59
2023-05-14T20:49:53.721Z,101693.69
2023-05-14T20:52:20.521Z,101690.69
2023-05-14T20:54:47.329Z,101689.41
2023-05-14T20:57:16.004Z,101691.97
2023-05-14T20:59:43.598Z,101685.16
2023-05-14T21:02:10.983Z,101691.94
2023-05-14T21:04:38.244Z,101690.19
2023-05-14T21:07:05.674Z,101685.13
2023-05-14T21:09:32.747Z,101682.47
2023-05-14T21:12:00.175Z,101679.38
2023-05-14T21:14:27.132Z,101671.22
2023-05-14T21:16:54.168Z,101677.78
2023-05-14T21:19:21.171Z,101682.38
2023-05-14T21:21:48.212Z,101678.72
2023-05-14T21:24:16.802Z,101675.41
2023-05-14T21:26:43.808Z,101666.78
2023-05-14T21:29:11.247Z,101673.69
2023-05-14T21:31:38.242Z,101668.03
2023-05-14T21:34:05.200Z,101670.56
2023-05-14T21:36:32.368Z,101670.22
2023-05-14T21:38:59.389Z,101671.47
2023-05-14T21:41:26.184Z,101673.22
2023-05-14T21:43:53.113Z,101669.06
2023-05-14T21:46:20.106Z,101666.78
2023-05-14T21:48:47.154Z,101672.53
2023-05-14T21:51:14.383Z,101661.50
2023-05-14T21:53:41.460Z,101662.38
2023-05-14T21:56:08.416Z,101661.91
2023-05-14T21:58:35.954Z,101655.25
2023-05-14T22:01:03.067Z,101655.38
2023-05-14T22:03:30.106Z,101648.81
2023-05-14T22:05:57.407Z,101642.28
2023-05-14T22:08:24.193Z,101643.28
2023-05-14T22:10:51.064Z,101652.94
2023-05-14T22:13:17.950Z,101648.13
2023-05-14T22:15:45.017Z,101644.41
2023-05-14T22:18:12.968Z,101658.22
2023-05-14T22:20:59.956Z,101658.59
2023-05-14T22:23:46.782Z,101654.56
2023-05-14T22:26:33.662Z,101652.81
2023-05-14T22:29:00.568Z,101661.91
2023-05-14T22:31:27.546Z,101654.31
2023-05-14T22:33:54.452Z,101647.88
2023-05-14T22:36:21.335Z,101650.31
2023-05-14T22:38:48.313Z,101640.66
2023-05-14T22:41:17.457Z,101646.28
2023-05-14T22:43:44.569Z,101647.19
2023-05-14T22:46:11.506Z,101636.75
2023-05-14T22:48:38.392Z,101632.00
2023-05-14T22:51:05.597Z,101637.53
2023-05-14T22:53:32.866Z,101637.09
2023-05-14T22:55:59.803Z,101629.25
2023-05-14T22:58:26.611Z,101632.63
2023-05-14T23:00:53.451Z,101621.34
2023-05-14T23:03:20.382Z,101619.72
2023-05-14T23:05:47.197Z,101626.47
2023-05-14T23:08:14.025Z,101615.53
2023-05-14T23:10:40.866Z,101612.59
2023-05-14T23:13:07.697Z,101610.84
2023-05-14T23:15:34.907Z,101608.31
2023-05-14T23:18:01.850Z,101607.75
2023-05-14T23:20:28.707Z,101614.28
2023-05-14T23:22:55.670Z,101611.31
2023-05-14T23:25:22.711Z,101606.13
2023-05-14T23:27:50.142Z,101602.09
2023-05-14T23:30:17.067Z,101593.81
2023-05-14T23:32:43.995Z,101597.34
2023-05-14T23:35:11.044Z,101601.38
2023-05-14T23:37:42.594Z,101589.44
2023-05-14T23:40:10.120Z,101597.81
2023-05-14T23:42:37.195Z,101597.22
2023-05-14T23:45:05.535Z,101595.41
2023-05-14T23:47:32.689Z,101592.28
2023-05-14T23:49:59.884Z,101587.47
2023-05-14T23:52:27.162Z,101590.59
2023-05-14T23:54:54.221Z,101587.16
2023-05-14T23:57:21.157Z,101579.22
2023-05-14T23:59:48.131Z,101571.19
